Flight Track Log - Related Links

Times and Time Zones

All times are in EDT time to prevent confusion due to time zone crossing. See the UAL5915 flight status page for this flight to view local times or setup timezone preferences in your user account.

Time Position Orientation Groundspeed Altitude Reporting Facility
EDT Latitude Longitude Course Direction KTS MPH feet Rate Location/Type
Thu 02:50:51 PM 36.1931 -95.9128 240° Southwest 167 192 1,400  Level Kansas City Center
Thu 02:52:13 PM 36.1631 -95.9772 240° Southwest 227 261 4,500 2,391 Climbing Kansas City Center
Thu 02:53:04 PM 36.0958 -95.9772 180° South 295 339 6,700 2,679 Climbing Kansas City Center
Thu 02:54:05 PM 36.0689 -95.8825 109° East 324 373 9,500 2,104 Climbing Kansas City Center
Thu 02:55:18 PM 36.0617 -95.7369 93° East 321 369 11,400 1,606 Climbing Kansas City Center
Thu 02:56:12 PM 36.0544 -95.6181 94° East 395 455 12,900 1,742 Climbing Kansas City Center
Thu 02:57:22 PM 36.0481 -95.4686 93° East 386 444 15,000 1,523 Climbing Kansas City Center
Thu 02:58:22 PM 36.0394 -95.3281 94° East 406 467 16,200 1,403 Climbing Kansas City Center
Thu 02:59:26 PM 36.0322 -95.1842 94° East 419 482 17,900 1,787 Climbing Kansas City Center
Thu 02:59:56 PM 36.0267 -95.1025 95° East 413 475 19,000 1,933 Climbing Memphis Center
Thu 03:00:56 PM 36.0236 -94.9611 91° East 413 475 20,800 1,800 Climbing Memphis Center
Thu 03:01:56 PM 36.0247 -94.8175 89° East 413 475 22,600 1,100 Climbing Memphis Center
Thu 03:02:56 PM 36.0808 -94.6997 59° Northeast 392 451 23,000 200 Climbing Memphis Center
Thu 03:03:56 PM 36.0775 -94.5533 92° East 400 460 23,000 350 Level Memphis Center
Thu 03:04:56 PM 36.0450 -94.4053 105° East 413 475 23,700 1,000 Climbing Memphis Center
Thu 03:05:56 PM 36.0478 -94.2489 89° East 443 510 25,000 650 Climbing Memphis Center
Thu 03:06:56 PM 36.0633 -94.0878 83° East 454 522 25,000  Level Memphis Center
Thu 03:07:56 PM 36.0661 -93.9183 89° East 474 545 25,000 600 Level Memphis Center
Thu 03:08:56 PM 36.0728 -93.7519 87° East 474 545 26,200 1,350 Climbing Memphis Center
Thu 03:09:56 PM 36.0792 -93.5928 87° East 474 545 27,700 1,500 Climbing Memphis Center
Thu 03:10:56 PM 36.0853 -93.4389 87° East 464 534 29,200 1,500 Climbing Memphis Center
Thu 03:11:56 PM 36.0908 -93.2878 87° East 444 511 30,700 1,550 Climbing Memphis Center
Thu 03:12:56 PM 36.0964 -93.1389 87° East 439 505 32,300 1,400 Climbing Memphis Center
Thu 03:13:56 PM 36.0997 -92.9900 88° East 439 505 33,500 1,150 Climbing Memphis Center
Thu 03:14:56 PM 36.1047 -92.8436 88° East 432 497 34,600 750 Climbing Memphis Center
Thu 03:15:56 PM 36.1117 -92.6950 87° East 432 497 35,000 550 Climbing Memphis Center
Thu 03:16:56 PM 36.1147 -92.5383 89° East 442 509 35,700 950 Climbing Memphis Center
Thu 03:17:56 PM 36.1192 -92.3869 88° East 442 509 36,900 650 Climbing Memphis Center
Thu 03:18:56 PM 36.0964 -92.2450 101° East 428 493 37,000 50 Climbing Memphis Center
Thu 03:19:56 PM 36.0611 -92.0978 106° East 428 493 37,000  Level Memphis Center
Thu 03:20:56 PM 36.0044 -91.9683 118° Southeast 435 501 37,000  Level Memphis Center
Thu 03:21:56 PM 35.9433 -91.8492 122° Southeast 425 489 37,000  Level Memphis Center
Thu 03:22:56 PM 35.8969 -91.7047 112° Southeast 420 483 37,000  Level Memphis Center
Thu 03:23:56 PM 35.9069 -91.5461 86° East 425 489 37,000  Level Memphis Center
Thu 03:24:56 PM 35.9125 -91.4028 87° East 442 509 37,000  Level Memphis Center
Thu 03:25:56 PM 35.9242 -91.2439 85° East 454 522 37,000  Level Memphis Center
Thu 03:26:56 PM 35.9356 -91.0878 85° East 454 522 37,000  Level Memphis Center
Thu 03:27:56 PM 35.9447 -90.9364 86° East 454 522 37,000  Level Memphis Center
Thu 03:28:56 PM 35.9536 -90.7775 86° East 454 522 37,000  Level Memphis Center
Thu 03:29:56 PM 35.9644 -90.6236 85° East 454 522 37,000  Level Memphis Center
Thu 03:30:56 PM 35.9731 -90.4697 86° East 454 522 37,000  Level Memphis Center
Thu 03:31:56 PM 36.0231 -90.3236 67° East 454 522 37,000  Level Memphis Center
Thu 03:32:56 PM 36.1167 -90.2028 46° Northeast 454 522 37,000  Level Memphis Center
Thu 03:33:56 PM 36.2083 -90.0817 47° Northeast 471 542 37,000  Level Memphis Center
Thu 03:34:56 PM 36.3058 -89.9553 46° Northeast 484 557 37,000  Level Memphis Center
Thu 03:35:56 PM 36.4033 -89.8283 46° Northeast 501 577 37,000  Level Memphis Center
Thu 03:36:56 PM 36.5092 -89.6933 46° Northeast 501 577 37,000  Level Memphis Center
Thu 03:37:56 PM 36.6083 -89.5633 46° Northeast 501 577 37,000  Level Memphis Center
Thu 03:38:56 PM 36.7094 -89.4303 47° Northeast 506 582 37,000  Level Memphis Center
Thu 03:39:56 PM 36.8086 -89.2969 47° Northeast 511 588 37,000  Level Memphis Center
Thu 03:40:56 PM 36.9094 -89.1633 47° Northeast 516 594 37,000  Level Memphis Center
Thu 03:41:56 PM 37.0081 -89.0294 47° Northeast 516 594 37,000  Level Memphis Center
Thu 03:42:56 PM 37.1067 -88.9003 46° Northeast 521 600 37,000  Level Memphis Center
Thu 03:43:56 PM 37.2069 -88.7631 47° Northeast 521 600 37,000  Level Memphis Center
Thu 03:44:56 PM 37.3053 -88.6308 47° Northeast 521 600 37,000  Level Memphis Center
Thu 03:46:37 PM 37.4544 -88.4197 48° Northeast 519 597 37,000  Level Indianapolis Center
Thu 03:47:39 PM 37.5611 -88.2711 48° Northeast 516 594 37,000  Level Indianapolis Center
Thu 03:48:41 PM 37.6503 -88.1497 47° Northeast 514 592 37,000  Level Indianapolis Center
Thu 03:49:43 PM 37.7644 -87.9903 48° Northeast 516 594 37,000  Level Indianapolis Center
Thu 03:50:45 PM 37.8547 -87.8647 48° Northeast 523 602 37,000  Level Indianapolis Center
Thu 03:51:47 PM 37.9297 -87.7097 58° Northeast 517 595 37,000  Level Indianapolis Center
Thu 03:52:49 PM 37.9478 -87.5394 82° East 493 567 37,000  Level Indianapolis Center
Thu 03:53:51 PM 37.9658 -87.3339 84° East 491 565 37,000  Level Indianapolis Center
Thu 03:54:53 PM 37.9800 -87.1628 84° East 494 568 37,000  Level Indianapolis Center
Thu 03:55:55 PM 37.9950 -86.9906 84° East 495 570 37,000  Level Indianapolis Center
Thu 03:56:58 PM 38.0083 -86.8164 84° East 499 574 37,000  Level Indianapolis Center
Thu 03:58:00 PM 38.0233 -86.6406 84° East 504 580 37,000  Level Indianapolis Center
Thu 03:59:02 PM 38.0397 -86.4278 84° East 506 582 37,000  Level Indianapolis Center
Thu 04:00:04 PM 38.0542 -86.2503 84° East 507 583 37,000  Level Indianapolis Center
Thu 04:01:18 PM 38.0711 -86.0367 84° East 508 585 37,000  Level Indianapolis Center
Thu 04:02:20 PM 38.0833 -85.8611 85° East 501 577 37,000  Level Indianapolis Center
Thu 04:03:22 PM 38.0956 -85.6867 85° East 497 572 37,000  Level Indianapolis Center
Thu 04:04:24 PM 38.1097 -85.5119 84° East 498 573 37,000  Level Indianapolis Center
Thu 04:05:27 PM 38.1250 -85.3139 84° East 473 544 37,000  Level Indianapolis Center
Thu 04:06:29 PM 38.1378 -85.1592 84° East 470 541 37,000  Level Indianapolis Center
Thu 04:07:31 PM 38.1508 -84.9917 84° East 475 547 37,000  Level Indianapolis Center
Thu 04:08:33 PM 38.1628 -84.8219 85° East 479 551 37,000  Level Indianapolis Center
Thu 04:09:35 PM 38.1781 -84.6194 84° East 487 560 37,000  Level Indianapolis Center
Thu 04:10:37 PM 38.1894 -84.4508 85° East 480 552 37,000  Level Indianapolis Center
Thu 04:11:39 PM 38.2019 -84.2772 85° East 488 562 37,000  Level Indianapolis Center
Thu 04:12:41 PM 38.2144 -84.1022 85° East 494 568 37,000  Level Indianapolis Center
Thu 04:13:43 PM 38.2261 -83.9250 85° East 502 578 37,000  Level Indianapolis Center
Thu 04:14:45 PM 38.2394 -83.7186 85° East 500 575 37,000  Level Indianapolis Center
Thu 04:15:47 PM 38.2506 -83.5506 85° East 482 555 37,000  Level Indianapolis Center
Thu 04:16:49 PM 38.2608 -83.3825 85° East 475 547 37,000  Level Indianapolis Center
Thu 04:17:51 PM 38.2717 -83.2136 85° East 478 550 37,000  Level Indianapolis Center
Thu 04:18:53 PM 38.2817 -83.0411 86° East 485 558 37,000  Level Indianapolis Center
Thu 04:19:55 PM 38.2919 -82.8667 86° East 492 566 37,000  Level Indianapolis Center
Thu 04:20:57 PM 38.3033 -82.6628 86° East 494 568 37,000  Level Indianapolis Center
Thu 04:21:59 PM 38.3033 -82.4858 90° East 498 573 37,000  Level Indianapolis Center
Thu 04:23:01 PM 38.2922 -82.3153 95° East 487 560 37,000  Level Indianapolis Center
Thu 04:24:03 PM 38.2814 -82.1478 95° East 479 551 37,000  Level Indianapolis Center
Thu 04:25:05 PM 38.2725 -81.9808 94° East 477 549 37,000  Level Indianapolis Center
Thu 04:26:07 PM 38.2781 -81.8119 88° East 484 557 37,000  Level Indianapolis Center
Thu 04:27:09 PM 38.2853 -81.6083 87° East 486 559 37,000  Level Indianapolis Center
Thu 04:28:11 PM 38.2917 -81.4372 87° East 490 564 37,000  Level Indianapolis Center
Thu 04:30:14 PM 38.3031 -81.1061 87° East 472 543 37,000  Level Washington Center
Thu 04:31:14 PM 38.3117 -80.9161 87° East 481 554 37,000  Level Washington Center
Thu 04:32:14 PM 38.3125 -80.7494 90° East 475 547 37,000  Level Washington Center
Thu 04:33:14 PM 38.3092 -80.5878 91° East 470 541 37,000  Level Washington Center
Thu 04:34:14 PM 38.3119 -80.4186 89° East 470 541 37,000  Level Washington Center
Thu 04:35:14 PM 38.3386 -80.2719 77° East 470 541 37,000 -300 Level Washington Center
Thu 04:36:14 PM 38.3700 -80.1044 77° East 475 547 36,400 -1,550 Descending Washington Center
Thu 04:37:14 PM 38.4075 -79.9344 74° East 487 560 33,900 -2,300 Descending Washington Center
Thu 04:38:14 PM 38.4486 -79.7725 72° East 487 560 31,800 -2,450 Descending Washington Center
Thu 04:39:14 PM 38.4881 -79.5944 74° East 475 547 29,000 -3,650 Descending Washington Center
Thu 04:40:14 PM 38.5247 -79.4344 74° East 468 539 24,500 -2,500 Descending Washington Center
Thu 04:41:14 PM 38.5525 -79.2819 77° East 463 533 24,000 -700 Descending Washington Center
Thu 04:42:14 PM 38.5822 -79.1214 77° East 458 527 23,100 -1,700 Descending Washington Center
Thu 04:43:14 PM 38.6139 -78.9661 75° East 451 519 20,600 -2,400 Descending Washington Center
Thu 04:44:14 PM 38.6403 -78.8397 75° East 436 502 18,300 -2,450 Descending Washington Center
Thu 04:45:14 PM 38.6694 -78.6842 76° East 410 472 15,700 -2,350 Descending Washington Center
Thu 04:46:14 PM 38.6933 -78.5628 76° East 394 453 13,600 -2,100 Descending Washington Center
Thu 04:47:14 PM 38.7217 -78.4281 75° East 369 425 11,500 -1,600 Descending Washington Center
Thu 04:48:14 PM 38.7656 -78.3286 60° Northeast 330 380 10,400 -1,300 Descending Washington Center
Thu 04:49:14 PM 38.8378 -78.2700 32° Northeast 296 341 8,900 -1,550 Descending Washington Center
Thu 04:50:14 PM 38.9078 -78.2192 29° Northeast 288 331 7,300 -1,500 Descending Washington Center
Thu 04:51:14 PM 38.9756 -78.1656 32° Northeast 283 326 5,900 -1,150 Descending Washington Center
Thu 04:52:14 PM 39.0431 -78.1200 28° Northeast 277 319 5,000 -450 Descending Washington Center
Thu 04:53:14 PM 39.1131 -78.0714 28° Northeast 271 312 5,000  Level Washington Center
Thu 04:54:14 PM 39.1806 -78.0283 26° Northeast 271 312 5,000  Level Washington Center
Thu 04:55:15 PM 39.2297 -77.9628 46° Northeast 265 305 5,000  Level Washington Center
Thu 04:57:42 PM 39.2667 -77.7667 76° East 230 265 5,000  Level Potomac TRACON
Thu 04:58:42 PM 39.2667 -77.6833 90° East 230 265 5,000  Level Potomac TRACON
Thu 04:59:42 PM 39.2667 -77.6000 90° East 229 264 5,000 -99 Level Potomac TRACON
Thu 05:00:43 PM 39.2500 -77.5333 108° East 224 258 4,800 -522 Descending Potomac TRACON
Thu 05:01:37 PM 39.2167 -77.4833 131° Southeast 226 260 4,000 -678 Descending Potomac TRACON
Thu 05:02:38 PM 39.1500 -77.4500 159° South 220 253 3,500 -694 Descending Potomac TRACON
Thu 05:03:38 PM 39.1000 -77.4500 180° South 221 254 2,600 -992 Descending Potomac TRACON
Thu 05:04:39 PM 39.0333 -77.4500 180° South 184 212 1,500 -942 Descending Potomac TRACON
Thu 05:05:39 PM 38.9833 -77.4667 195° South 144 166 700 -800 Descending Potomac TRACON

Login

Don't have an account? Register now (free) for customized features, flight alerts, and more!